sensor_id;sensor_type;location;lat;lon;timestamp;P1;durP1;ratioP1;P2;durP2;ratioP2
43933;SDS011;59081;42.706;23.306;2023-08-08T00:01:25;2.35;;;0.80;;
43933;SDS011;59081;42.706;23.306;2023-08-08T00:06:25;0.65;;;0.65;;
43933;SDS011;59081;42.706;23.306;2023-08-08T00:11:27;1.67;;;1.20;;
43933;SDS011;59081;42.706;23.306;2023-08-08T00:16:27;1.25;;;0.90;;
43933;SDS011;59081;42.706;23.306;2023-08-08T00:21:28;1.30;;;1.20;;
43933;SDS011;59081;42.706;23.306;2023-08-08T00:26:28;1.40;;;0.93;;
43933;SDS011;59081;42.706;23.306;2023-08-08T00:31:28;0.90;;;0.90;;
43933;SDS011;59081;42.706;23.306;2023-08-08T00:36:29;2.67;;;1.20;;
43933;SDS011;59081;42.706;23.306;2023-08-08T00:41:29;1.35;;;1.20;;
43933;SDS011;59081;42.706;23.306;2023-08-08T00:46:30;1.30;;;1.20;;
43933;SDS011;59081;42.706;23.306;2023-08-08T00:51:31;1.00;;;1.00;;
43933;SDS011;59081;42.706;23.306;2023-08-08T00:56:32;1.33;;;1.13;;
43933;SDS011;59081;42.706;23.306;2023-08-08T01:01:33;3.70;;;1.25;;
43933;SDS011;59081;42.706;23.306;2023-08-08T01:16:48;1.20;;;1.00;;
43933;SDS011;59081;42.706;23.306;2023-08-08T01:21:49;2.00;;;1.20;;
43933;SDS011;59081;42.706;23.306;2023-08-08T01:26:53;2.28;;;2.08;;
43933;SDS011;59081;42.706;23.306;2023-08-08T01:31:53;1.00;;;0.90;;
43933;SDS011;59081;42.706;23.306;2023-08-08T01:36:58;13.75;;;1.67;;
43933;SDS011;59081;42.706;23.306;2023-08-08T01:42:03;0.95;;;0.90;;
43933;SDS011;59081;42.706;23.306;2023-08-08T01:47:07;3.15;;;1.08;;
43933;SDS011;59081;42.706;23.306;2023-08-08T01:52:10;1.95;;;1.48;;
43933;SDS011;59081;42.706;23.306;2023-08-08T01:57:11;1.40;;;1.30;;
43933;SDS011;59081;42.706;23.306;2023-08-08T02:02:11;4.75;;;1.50;;
43933;SDS011;59081;42.706;23.306;2023-08-08T02:07:12;0.57;;;0.55;;
43933;SDS011;59081;42.706;23.306;2023-08-08T02:12:12;1.50;;;1.40;;
43933;SDS011;59081;42.706;23.306;2023-08-08T02:17:13;2.30;;;1.40;;
43933;SDS011;59081;42.706;23.306;2023-08-08T02:22:13;1.60;;;1.50;;
43933;SDS011;59081;42.706;23.306;2023-08-08T02:27:14;4.97;;;1.58;;
43933;SDS011;59081;42.706;23.306;2023-08-08T02:32:14;1.70;;;1.23;;
43933;SDS011;59081;42.706;23.306;2023-08-08T02:37:15;3.33;;;1.73;;
43933;SDS011;59081;42.706;23.306;2023-08-08T02:42:15;2.25;;;1.70;;
43933;SDS011;59081;42.706;23.306;2023-08-08T02:47:16;2.05;;;1.73;;
43933;SDS011;59081;42.706;23.306;2023-08-08T02:52:16;2.03;;;1.73;;
43933;SDS011;59081;42.706;23.306;2023-08-08T02:57:17;5.47;;;2.13;;
43933;SDS011;59081;42.706;23.306;2023-08-08T03:02:17;5.20;;;2.55;;
43933;SDS011;59081;42.706;23.306;2023-08-08T03:07:18;4.18;;;2.45;;
43933;SDS011;59081;42.706;23.306;2023-08-08T03:12:18;1.05;;;1.02;;
43933;SDS011;59081;42.706;23.306;2023-08-08T03:17:19;2.95;;;2.70;;
43933;SDS011;59081;42.706;23.306;2023-08-08T03:22:19;4.60;;;2.50;;
43933;SDS011;59081;42.706;23.306;2023-08-08T03:27:20;5.13;;;3.05;;
43933;SDS011;59081;42.706;23.306;2023-08-08T03:32:20;4.88;;;2.70;;
43933;SDS011;59081;42.706;23.306;2023-08-08T03:37:21;3.25;;;2.92;;
43933;SDS011;59081;42.706;23.306;2023-08-08T03:42:21;3.35;;;3.03;;
43933;SDS011;59081;42.706;23.306;2023-08-08T03:47:21;3.72;;;3.13;;
43933;SDS011;59081;42.706;23.306;2023-08-08T03:52:22;8.07;;;3.70;;
43933;SDS011;59081;42.706;23.306;2023-08-08T03:57:23;5.97;;;3.60;;
43933;SDS011;59081;42.706;23.306;2023-08-08T04:02:24;7.43;;;3.63;;
43933;SDS011;59081;42.706;23.306;2023-08-08T04:07:25;4.57;;;3.83;;
43933;SDS011;59081;42.706;23.306;2023-08-08T04:12:25;18.13;;;4.22;;
43933;SDS011;59081;42.706;23.306;2023-08-08T04:17:26;4.28;;;3.72;;
43933;SDS011;59081;42.706;23.306;2023-08-08T04:22:27;5.28;;;4.18;;
43933;SDS011;59081;42.706;23.306;2023-08-08T04:27:27;5.05;;;3.90;;
43933;SDS011;59081;42.706;23.306;2023-08-08T04:32:27;4.32;;;3.97;;
43933;SDS011;59081;42.706;23.306;2023-08-08T04:37:28;7.72;;;4.45;;
43933;SDS011;59081;42.706;23.306;2023-08-08T04:42:28;7.28;;;3.13;;
43933;SDS011;59081;42.706;23.306;2023-08-08T04:47:29;4.80;;;3.42;;
43933;SDS011;59081;42.706;23.306;2023-08-08T04:52:29;5.97;;;3.67;;
43933;SDS011;59081;42.706;23.306;2023-08-08T04:57:30;4.47;;;4.07;;
43933;SDS011;59081;42.706;23.306;2023-08-08T05:02:35;4.63;;;3.70;;
43933;SDS011;59081;42.706;23.306;2023-08-08T05:07:39;4.90;;;4.40;;
43933;SDS011;59081;42.706;23.306;2023-08-08T05:12:42;7.22;;;4.10;;
43933;SDS011;59081;42.706;23.306;2023-08-08T05:17:42;6.18;;;3.92;;
43933;SDS011;59081;42.706;23.306;2023-08-08T05:22:45;5.45;;;2.75;;
43933;SDS011;59081;42.706;23.306;2023-08-08T05:27:45;6.40;;;3.10;;
43933;SDS011;59081;42.706;23.306;2023-08-08T05:32:47;3.17;;;2.78;;
43933;SDS011;59081;42.706;23.306;2023-08-08T05:37:48;6.47;;;3.20;;
43933;SDS011;59081;42.706;23.306;2023-08-08T05:42:48;3.28;;;2.97;;
43933;SDS011;59081;42.706;23.306;2023-08-08T05:47:48;3.65;;;2.83;;
43933;SDS011;59081;42.706;23.306;2023-08-08T05:52:49;6.18;;;3.17;;
43933;SDS011;59081;42.706;23.306;2023-08-08T05:57:49;4.07;;;3.60;;
43933;SDS011;59081;42.706;23.306;2023-08-08T06:02:50;4.55;;;3.30;;
43933;SDS011;59081;42.706;23.306;2023-08-08T06:07:51;3.50;;;3.20;;
43933;SDS011;59081;42.706;23.306;2023-08-08T06:12:51;4.93;;;3.60;;
43933;SDS011;59081;42.706;23.306;2023-08-08T06:17:52;3.85;;;3.25;;
43933;SDS011;59081;42.706;23.306;2023-08-08T06:22:52;6.53;;;3.45;;
43933;SDS011;59081;42.706;23.306;2023-08-08T06:27:53;4.88;;;3.13;;
43933;SDS011;59081;42.706;23.306;2023-08-08T06:32:53;3.70;;;3.13;;
43933;SDS011;59081;42.706;23.306;2023-08-08T06:37:54;6.15;;;3.40;;
43933;SDS011;59081;42.706;23.306;2023-08-08T06:42:54;2.65;;;2.45;;
43933;SDS011;59081;42.706;23.306;2023-08-08T06:47:55;5.40;;;3.10;;
43933;SDS011;59081;42.706;23.306;2023-08-08T06:52:55;2.72;;;2.38;;
43933;SDS011;59081;42.706;23.306;2023-08-08T06:57:56;3.08;;;1.70;;
43933;SDS011;59081;42.706;23.306;2023-08-08T07:02:56;4.20;;;1.50;;
43933;SDS011;59081;42.706;23.306;2023-08-08T07:07:57;2.35;;;1.80;;
43933;SDS011;59081;42.706;23.306;2023-08-08T07:12:57;2.47;;;1.83;;
43933;SDS011;59081;42.706;23.306;2023-08-08T07:17:58;2.28;;;1.70;;
43933;SDS011;59081;42.706;23.306;2023-08-08T07:22:58;16.02;;;2.30;;
43933;SDS011;59081;42.706;23.306;2023-08-08T07:28:00;4.43;;;1.70;;
43933;SDS011;59081;42.706;23.306;2023-08-08T07:33:00;1.55;;;1.42;;
43933;SDS011;59081;42.706;23.306;2023-08-08T07:38:01;2.30;;;1.50;;
43933;SDS011;59081;42.706;23.306;2023-08-08T07:43:01;2.65;;;1.35;;
43933;SDS011;59081;42.706;23.306;2023-08-08T07:48:02;2.75;;;1.38;;
43933;SDS011;59081;42.706;23.306;2023-08-08T07:53:04;1.30;;;1.20;;
43933;SDS011;59081;42.706;23.306;2023-08-08T07:58:04;1.58;;;1.02;;
43933;SDS011;59081;42.706;23.306;2023-08-08T08:03:04;1.40;;;1.30;;
43933;SDS011;59081;42.706;23.306;2023-08-08T08:08:05;2.35;;;1.10;;
43933;SDS011;59081;42.706;23.306;2023-08-08T08:13:05;1.45;;;1.10;;
43933;SDS011;59081;42.706;23.306;2023-08-08T08:18:06;1.20;;;1.10;;
43933;SDS011;59081;42.706;23.306;2023-08-08T08:23:06;1.67;;;1.30;;
43933;SDS011;59081;42.706;23.306;2023-08-08T08:28:07;2.67;;;1.40;;
43933;SDS011;59081;42.706;23.306;2023-08-08T08:33:08;8.13;;;1.50;;
43933;SDS011;59081;42.706;23.306;2023-08-08T08:38:09;1.48;;;1.38;;
43933;SDS011;59081;42.706;23.306;2023-08-08T08:43:10;2.10;;;1.40;;
43933;SDS011;59081;42.706;23.306;2023-08-08T08:48:11;3.97;;;1.80;;
43933;SDS011;59081;42.706;23.306;2023-08-08T08:53:14;17.48;;;2.42;;
43933;SDS011;59081;42.706;23.306;2023-08-08T08:58:16;2.90;;;1.70;;
43933;SDS011;59081;42.706;23.306;2023-08-08T09:03:18;3.20;;;1.15;;
43933;SDS011;59081;42.706;23.306;2023-08-08T09:08:19;2.33;;;1.73;;
43933;SDS011;59081;42.706;23.306;2023-08-08T09:13:20;1.60;;;1.50;;
43933;SDS011;59081;42.706;23.306;2023-08-08T09:18:23;8.18;;;1.70;;
43933;SDS011;59081;42.706;23.306;2023-08-08T09:23:24;1.95;;;1.48;;
43933;SDS011;59081;42.706;23.306;2023-08-08T09:28:25;5.47;;;1.42;;
43933;SDS011;59081;42.706;23.306;2023-08-08T09:33:28;2.00;;;1.88;;
43933;SDS011;59081;42.706;23.306;2023-08-08T09:38:29;3.67;;;1.70;;
43933;SDS011;59081;42.706;23.306;2023-08-08T09:43:29;1.63;;;1.52;;
43933;SDS011;59081;42.706;23.306;2023-08-08T09:48:30;2.20;;;1.80;;
43933;SDS011;59081;42.706;23.306;2023-08-08T09:58:33;3.90;;;2.20;;
43933;SDS011;59081;42.706;23.306;2023-08-08T10:03:34;1.63;;;1.53;;
43933;SDS011;59081;42.706;23.306;2023-08-08T10:08:37;4.05;;;1.58;;
43933;SDS011;59081;42.706;23.306;2023-08-08T10:13:38;2.67;;;1.85;;
43933;SDS011;59081;42.706;23.306;2023-08-08T10:18:38;1.77;;;1.67;;
43933;SDS011;59081;42.706;23.306;2023-08-08T10:23:39;2.55;;;1.80;;
43933;SDS011;59081;42.706;23.306;2023-08-08T10:28:40;2.20;;;1.65;;
43933;SDS011;59081;42.706;23.306;2023-08-08T10:33:41;2.05;;;1.85;;
43933;SDS011;59081;42.706;23.306;2023-08-08T10:38:46;3.28;;;1.55;;
43933;SDS011;59081;42.706;23.306;2023-08-08T10:43:51;2.47;;;1.60;;
43933;SDS011;59081;42.706;23.306;2023-08-08T10:48:57;1.65;;;1.55;;
43933;SDS011;59081;42.706;23.306;2023-08-08T10:54:02;1.35;;;1.05;;
43933;SDS011;59081;42.706;23.306;2023-08-08T10:59:17;1.25;;;1.13;;
43933;SDS011;59081;42.706;23.306;2023-08-08T11:04:19;2.72;;;0.98;;
43933;SDS011;59081;42.706;23.306;2023-08-08T11:09:22;2.00;;;1.30;;
43933;SDS011;59081;42.706;23.306;2023-08-08T11:14:23;1.75;;;1.13;;
43933;SDS011;59081;42.706;23.306;2023-08-08T11:19:23;2.20;;;1.30;;
43933;SDS011;59081;42.706;23.306;2023-08-08T11:24:24;1.80;;;1.35;;
43933;SDS011;59081;42.706;23.306;2023-08-08T11:29:24;2.37;;;1.00;;
43933;SDS011;59081;42.706;23.306;2023-08-08T11:34:30;3.80;;;1.40;;
43933;SDS011;59081;42.706;23.306;2023-08-08T11:39:32;1.38;;;1.13;;
43933;SDS011;59081;42.706;23.306;2023-08-08T11:44:33;3.77;;;1.50;;
43933;SDS011;59081;42.706;23.306;2023-08-08T11:49:40;1.87;;;1.60;;
43933;SDS011;59081;42.706;23.306;2023-08-08T11:54:42;3.60;;;1.48;;
43933;SDS011;59081;42.706;23.306;2023-08-08T11:59:42;2.13;;;1.27;;
43933;SDS011;59081;42.706;23.306;2023-08-08T12:04:43;1.53;;;0.90;;
43933;SDS011;59081;42.706;23.306;2023-08-08T12:09:48;1.00;;;1.00;;
43933;SDS011;59081;42.706;23.306;2023-08-08T12:14:49;1.30;;;0.98;;
43933;SDS011;59081;42.706;23.306;2023-08-08T12:19:49;1.30;;;1.17;;
43933;SDS011;59081;42.706;23.306;2023-08-08T12:24:50;1.30;;;1.00;;
43933;SDS011;59081;42.706;23.306;2023-08-08T12:29:50;1.40;;;1.13;;
43933;SDS011;59081;42.706;23.306;2023-08-08T12:34:51;2.38;;;1.25;;
43933;SDS011;59081;42.706;23.306;2023-08-08T12:39:52;1.00;;;0.87;;
43933;SDS011;59081;42.706;23.306;2023-08-08T12:44:53;1.37;;;1.27;;
43933;SDS011;59081;42.706;23.306;2023-08-08T12:49:53;3.72;;;1.65;;
43933;SDS011;59081;42.706;23.306;2023-08-08T12:54:54;2.40;;;1.00;;
43933;SDS011;59081;42.706;23.306;2023-08-08T12:59:54;1.40;;;1.03;;
43933;SDS011;59081;42.706;23.306;2023-08-08T13:04:55;1.17;;;0.67;;
43933;SDS011;59081;42.706;23.306;2023-08-08T13:09:55;1.10;;;0.83;;
43933;SDS011;59081;42.706;23.306;2023-08-08T13:14:55;1.60;;;0.80;;
43933;SDS011;59081;42.706;23.306;2023-08-08T13:19:56;2.03;;;0.83;;
43933;SDS011;59081;42.706;23.306;2023-08-08T13:24:57;2.17;;;0.73;;
43933;SDS011;59081;42.706;23.306;2023-08-08T13:29:57;1.97;;;1.10;;
43933;SDS011;59081;42.706;23.306;2023-08-08T13:34:58;1.70;;;0.87;;
43933;SDS011;59081;42.706;23.306;2023-08-08T13:39:59;1.60;;;1.13;;
43933;SDS011;59081;42.706;23.306;2023-08-08T13:44:59;2.47;;;1.20;;
43933;SDS011;59081;42.706;23.306;2023-08-08T13:50:00;1.23;;;1.03;;
43933;SDS011;59081;42.706;23.306;2023-08-08T13:55:00;3.13;;;1.10;;
43933;SDS011;59081;42.706;23.306;2023-08-08T14:00:01;1.17;;;1.08;;
43933;SDS011;59081;42.706;23.306;2023-08-08T14:05:03;3.63;;;1.13;;
43933;SDS011;59081;42.706;23.306;2023-08-08T14:10:06;3.15;;;0.90;;
43933;SDS011;59081;42.706;23.306;2023-08-08T14:15:09;6.07;;;1.30;;
43933;SDS011;59081;42.706;23.306;2023-08-08T14:20:09;1.37;;;0.90;;
43933;SDS011;59081;42.706;23.306;2023-08-08T14:25:10;1.25;;;1.05;;
43933;SDS011;59081;42.706;23.306;2023-08-08T14:30:11;1.10;;;1.00;;
43933;SDS011;59081;42.706;23.306;2023-08-08T14:35:11;0.97;;;0.87;;
43933;SDS011;59081;42.706;23.306;2023-08-08T14:40:12;1.40;;;1.00;;
43933;SDS011;59081;42.706;23.306;2023-08-08T14:45:13;2.27;;;1.00;;
43933;SDS011;59081;42.706;23.306;2023-08-08T14:50:13;5.03;;;0.87;;
43933;SDS011;59081;42.706;23.306;2023-08-08T14:55:14;1.00;;;0.70;;
43933;SDS011;59081;42.706;23.306;2023-08-08T15:00:15;0.82;;;0.82;;
43933;SDS011;59081;42.706;23.306;2023-08-08T15:05:16;1.55;;;0.95;;
43933;SDS011;59081;42.706;23.306;2023-08-08T15:15:17;1.45;;;0.82;;
43933;SDS011;59081;42.706;23.306;2023-08-08T15:20:20;1.40;;;0.80;;
43933;SDS011;59081;42.706;23.306;2023-08-08T15:25:20;1.58;;;0.70;;
43933;SDS011;59081;42.706;23.306;2023-08-08T15:30:21;1.80;;;0.90;;
43933;SDS011;59081;42.706;23.306;2023-08-08T15:35:21;2.63;;;0.80;;
43933;SDS011;59081;42.706;23.306;2023-08-08T15:40:22;1.33;;;1.00;;
43933;SDS011;59081;42.706;23.306;2023-08-08T15:45:22;2.07;;;1.20;;
43933;SDS011;59081;42.706;23.306;2023-08-08T15:50:23;3.00;;;1.50;;
43933;SDS011;59081;42.706;23.306;2023-08-08T15:55:23;0.80;;;0.80;;
43933;SDS011;59081;42.706;23.306;2023-08-08T16:00:24;1.37;;;1.00;;
43933;SDS011;59081;42.706;23.306;2023-08-08T16:05:25;1.87;;;0.87;;
43933;SDS011;59081;42.706;23.306;2023-08-08T16:10:27;2.97;;;1.00;;
43933;SDS011;59081;42.706;23.306;2023-08-08T16:15:28;1.43;;;1.03;;
43933;SDS011;59081;42.706;23.306;2023-08-08T16:20:29;3.97;;;0.90;;
43933;SDS011;59081;42.706;23.306;2023-08-08T16:25:29;3.73;;;1.10;;
43933;SDS011;59081;42.706;23.306;2023-08-08T16:30:30;1.97;;;1.20;;
43933;SDS011;59081;42.706;23.306;2023-08-08T16:35:31;1.90;;;1.20;;
43933;SDS011;59081;42.706;23.306;2023-08-08T16:40:31;1.27;;;1.00;;
43933;SDS011;59081;42.706;23.306;2023-08-08T16:45:32;3.40;;;1.27;;
43933;SDS011;59081;42.706;23.306;2023-08-08T16:50:32;0.80;;;0.80;;
43933;SDS011;59081;42.706;23.306;2023-08-08T16:55:33;1.37;;;1.17;;
43933;SDS011;59081;42.706;23.306;2023-08-08T17:00:33;2.33;;;1.17;;
43933;SDS011;59081;42.706;23.306;2023-08-08T17:05:34;2.17;;;1.17;;
43933;SDS011;59081;42.706;23.306;2023-08-08T17:10:35;4.13;;;1.40;;
43933;SDS011;59081;42.706;23.306;2023-08-08T17:15:36;1.65;;;1.00;;
43933;SDS011;59081;42.706;23.306;2023-08-08T17:20:37;1.37;;;1.03;;
43933;SDS011;59081;42.706;23.306;2023-08-08T17:25:37;4.90;;;1.27;;
43933;SDS011;59081;42.706;23.306;2023-08-08T17:30:38;1.70;;;0.77;;
43933;SDS011;59081;42.706;23.306;2023-08-08T17:35:38;0.93;;;0.83;;
43933;SDS011;59081;42.706;23.306;2023-08-08T17:40:39;2.27;;;1.00;;
43933;SDS011;59081;42.706;23.306;2023-08-08T17:45:39;5.78;;;1.27;;
43933;SDS011;59081;42.706;23.306;2023-08-08T17:50:40;1.23;;;0.80;;
43933;SDS011;59081;42.706;23.306;2023-08-08T17:55:40;1.87;;;0.90;;
43933;SDS011;59081;42.706;23.306;2023-08-08T18:00:40;1.45;;;0.90;;
43933;SDS011;59081;42.706;23.306;2023-08-08T18:05:41;2.15;;;1.17;;
43933;SDS011;59081;42.706;23.306;2023-08-08T18:10:41;1.25;;;1.15;;
43933;SDS011;59081;42.706;23.306;2023-08-08T18:15:42;1.90;;;1.02;;
43933;SDS011;59081;42.706;23.306;2023-08-08T18:20:43;4.25;;;1.10;;
43933;SDS011;59081;42.706;23.306;2023-08-08T18:25:43;2.83;;;1.30;;
43933;SDS011;59081;42.706;23.306;2023-08-08T18:30:44;1.50;;;1.25;;
43933;SDS011;59081;42.706;23.306;2023-08-08T18:35:45;1.70;;;1.17;;
43933;SDS011;59081;42.706;23.306;2023-08-08T18:40:45;10.52;;;1.17;;
43933;SDS011;59081;42.706;23.306;2023-08-08T18:45:46;7.70;;;1.50;;
43933;SDS011;59081;42.706;23.306;2023-08-08T18:50:47;1.30;;;1.10;;
43933;SDS011;59081;42.706;23.306;2023-08-08T18:55:48;1.30;;;0.83;;
43933;SDS011;59081;42.706;23.306;2023-08-08T19:00:50;2.30;;;0.97;;
43933;SDS011;59081;42.706;23.306;2023-08-08T19:05:51;2.65;;;1.13;;
43933;SDS011;59081;42.706;23.306;2023-08-08T19:10:53;1.52;;;1.10;;
43933;SDS011;59081;42.706;23.306;2023-08-08T19:15:53;4.03;;;1.63;;
43933;SDS011;59081;42.706;23.306;2023-08-08T19:20:54;3.25;;;1.60;;
43933;SDS011;59081;42.706;23.306;2023-08-08T19:25:58;1.70;;;1.20;;
43933;SDS011;59081;42.706;23.306;2023-08-08T19:30:59;3.92;;;0.95;;
43933;SDS011;59081;42.706;23.306;2023-08-08T19:36:00;3.08;;;1.10;;
43933;SDS011;59081;42.706;23.306;2023-08-08T19:41:01;3.00;;;1.30;;
43933;SDS011;59081;42.706;23.306;2023-08-08T19:46:01;3.85;;;1.20;;
43933;SDS011;59081;42.706;23.306;2023-08-08T19:51:02;1.80;;;1.40;;
43933;SDS011;59081;42.706;23.306;2023-08-08T19:56:02;2.35;;;1.35;;
43933;SDS011;59081;42.706;23.306;2023-08-08T20:01:03;11.68;;;7.93;;
43933;SDS011;59081;42.706;23.306;2023-08-08T20:06:03;4.90;;;2.53;;
43933;SDS011;59081;42.706;23.306;2023-08-08T20:11:04;3.22;;;1.77;;
43933;SDS011;59081;42.706;23.306;2023-08-08T20:16:05;5.18;;;1.30;;
43933;SDS011;59081;42.706;23.306;2023-08-08T20:21:06;2.55;;;1.13;;
43933;SDS011;59081;42.706;23.306;2023-08-08T20:26:06;1.77;;;0.82;;
43933;SDS011;59081;42.706;23.306;2023-08-08T20:31:07;2.13;;;1.02;;
43933;SDS011;59081;42.706;23.306;2023-08-08T20:36:08;3.42;;;0.90;;
43933;SDS011;59081;42.706;23.306;2023-08-08T20:41:08;2.95;;;0.90;;
43933;SDS011;59081;42.706;23.306;2023-08-08T20:46:08;1.35;;;1.08;;
43933;SDS011;59081;42.706;23.306;2023-08-08T20:51:12;0.93;;;0.80;;
43933;SDS011;59081;42.706;23.306;2023-08-08T20:56:12;2.40;;;1.05;;
43933;SDS011;59081;42.706;23.306;2023-08-08T21:01:13;1.65;;;0.85;;
43933;SDS011;59081;42.706;23.306;2023-08-08T21:06:13;3.30;;;0.80;;
43933;SDS011;59081;42.706;23.306;2023-08-08T21:11:14;1.23;;;0.85;;
43933;SDS011;59081;42.706;23.306;2023-08-08T21:16:14;1.40;;;0.80;;
43933;SDS011;59081;42.706;23.306;2023-08-08T21:21:15;1.30;;;0.80;;
43933;SDS011;59081;42.706;23.306;2023-08-08T21:26:15;1.63;;;1.23;;
43933;SDS011;59081;42.706;23.306;2023-08-08T21:31:16;1.10;;;0.90;;
43933;SDS011;59081;42.706;23.306;2023-08-08T21:36:17;1.95;;;1.10;;
43933;SDS011;59081;42.706;23.306;2023-08-08T21:41:17;1.80;;;1.00;;
43933;SDS011;59081;42.706;23.306;2023-08-08T21:46:18;1.48;;;1.05;;
43933;SDS011;59081;42.706;23.306;2023-08-08T21:51:18;0.98;;;0.77;;
43933;SDS011;59081;42.706;23.306;2023-08-08T21:56:18;3.40;;;0.85;;
43933;SDS011;59081;42.706;23.306;2023-08-08T22:01:19;2.90;;;1.00;;
43933;SDS011;59081;42.706;23.306;2023-08-08T22:06:19;0.88;;;0.70;;
43933;SDS011;59081;42.706;23.306;2023-08-08T22:11:20;2.13;;;1.15;;
43933;SDS011;59081;42.706;23.306;2023-08-08T22:16:20;1.45;;;1.17;;
43933;SDS011;59081;42.706;23.306;2023-08-08T22:21:21;2.92;;;1.20;;
43933;SDS011;59081;42.706;23.306;2023-08-08T22:26:21;2.13;;;1.17;;
43933;SDS011;59081;42.706;23.306;2023-08-08T22:31:22;1.38;;;1.15;;
43933;SDS011;59081;42.706;23.306;2023-08-08T22:36:22;3.08;;;1.17;;
43933;SDS011;59081;42.706;23.306;2023-08-08T22:41:22;1.13;;;0.98;;
43933;SDS011;59081;42.706;23.306;2023-08-08T22:46:23;1.52;;;0.90;;
43933;SDS011;59081;42.706;23.306;2023-08-08T22:51:23;1.02;;;0.88;;
43933;SDS011;59081;42.706;23.306;2023-08-08T22:56:24;5.25;;;1.00;;
43933;SDS011;59081;42.706;23.306;2023-08-08T23:01:24;1.17;;;1.00;;
43933;SDS011;59081;42.706;23.306;2023-08-08T23:06:25;1.15;;;1.05;;
43933;SDS011;59081;42.706;23.306;2023-08-08T23:11:25;2.55;;;1.17;;
43933;SDS011;59081;42.706;23.306;2023-08-08T23:16:26;1.48;;;1.10;;
43933;SDS011;59081;42.706;23.306;2023-08-08T23:21:26;1.52;;;0.90;;
43933;SDS011;59081;42.706;23.306;2023-08-08T23:26:27;3.03;;;1.25;;
43933;SDS011;59081;42.706;23.306;2023-08-08T23:31:27;2.55;;;1.00;;
43933;SDS011;59081;42.706;23.306;2023-08-08T23:36:28;1.08;;;0.98;;
43933;SDS011;59081;42.706;23.306;2023-08-08T23:41:28;1.60;;;0.90;;
43933;SDS011;59081;42.706;23.306;2023-08-08T23:46:29;1.40;;;0.95;;
43933;SDS011;59081;42.706;23.306;2023-08-08T23:51:29;2.65;;;0.90;;
43933;SDS011;59081;42.706;23.306;2023-08-08T23:56:30;0.95;;;0.85;;
